createdAt,value
2022-12-17T11:09:42.349Z,1019.12
2022-12-17T11:10:12.302Z,1019.16
2022-12-17T11:10:42.266Z,1019.15
2022-12-17T11:11:12.257Z,1019.10
2022-12-17T11:11:42.198Z,1019.11
2022-12-17T11:12:12.164Z,1019.12
2022-12-17T11:12:42.112Z,1019.12
2022-12-17T11:13:12.109Z,1019.11
2022-12-17T11:13:41.998Z,1019.12
2022-12-17T11:14:11.956Z,1019.09
2022-12-17T11:14:42.176Z,1019.15
2022-12-17T11:15:11.884Z,1019.05
2022-12-17T11:15:41.864Z,1019.11
2022-12-17T11:16:11.775Z,1019.13
2022-12-17T11:16:41.792Z,1019.14
2022-12-17T11:17:11.736Z,1019.14
2022-12-17T11:17:41.621Z,1019.18
2022-12-17T11:18:12.032Z,1019.15
2022-12-17T11:18:41.361Z,1019.17
2022-12-17T11:19:11.241Z,1019.15
2022-12-17T11:19:41.266Z,1019.08
2022-12-17T11:20:11.189Z,1019.13
2022-12-17T11:20:41.024Z,1019.11
2022-12-17T11:21:10.934Z,1019.11
2022-12-17T11:21:40.854Z,1019.11
2022-12-17T11:22:10.908Z,1019.14
2022-12-17T11:22:40.706Z,1019.12
2022-12-17T11:23:10.640Z,1019.09
2022-12-17T11:23:40.570Z,1019.14
2022-12-17T11:24:10.439Z,1019.12
2022-12-17T11:24:40.408Z,1019.08
2022-12-17T11:25:10.297Z,1019.10
2022-12-17T11:25:40.210Z,1019.08
2022-12-17T11:26:10.117Z,1019.06
2022-12-17T11:26:40.018Z,1019.03
2022-12-17T11:27:09.988Z,1019.01
2022-12-17T11:27:39.870Z,1019.02
2022-12-17T11:28:09.786Z,1019.05
2022-12-17T11:28:39.744Z,1019.09
2022-12-17T11:29:09.616Z,1019.04
2022-12-17T11:29:39.533Z,1019.04
2022-12-17T11:30:09.439Z,1019.10
2022-12-17T11:30:39.390Z,1019.06
2022-12-17T11:31:09.389Z,1019.11
2022-12-17T11:31:39.315Z,1019.11
2022-12-17T11:32:09.085Z,1019.09
2022-12-17T11:32:39.013Z,1019.14
2022-12-17T11:33:08.944Z,1019.11
2022-12-17T11:33:39.202Z,1019.11
2022-12-17T11:34:08.793Z,1019.02
2022-12-17T11:34:38.724Z,1019.03
2022-12-17T11:35:08.684Z,1019.05
2022-12-17T11:35:38.633Z,1019.03
2022-12-17T11:36:08.563Z,1019.04
2022-12-17T11:36:39.350Z,1019.11
2022-12-17T11:37:08.483Z,1018.99
2022-12-17T11:37:38.449Z,1019.02
2022-12-17T11:38:08.410Z,1019.02
2022-12-17T11:38:38.652Z,1018.95
2022-12-17T11:39:08.310Z,1019.02
2022-12-17T11:39:38.275Z,1019.02
2022-12-17T11:40:08.199Z,1019.05
2022-12-17T11:40:38.174Z,1018.95
2022-12-17T11:41:08.108Z,1018.99
2022-12-17T11:41:38.033Z,1019.04
2022-12-17T11:42:11.285Z,1018.95
2022-12-17T11:42:37.915Z,1018.97
2022-12-17T11:43:07.812Z,1019.01
2022-12-17T11:43:37.761Z,1019.03
2022-12-17T11:44:07.676Z,1019.00
2022-12-17T11:44:37.616Z,1019.02
2022-12-17T11:45:07.547Z,1019.08
2022-12-17T11:45:37.440Z,1019.10
2022-12-17T11:46:07.432Z,1019.04
2022-12-17T11:46:37.355Z,1019.04
2022-12-17T11:47:07.226Z,1019.03
2022-12-17T11:47:37.177Z,1019.00
2022-12-17T11:48:07.077Z,1019.02
2022-12-17T11:48:37.371Z,1019.10
2022-12-17T11:49:06.936Z,1019.06
2022-12-17T11:49:36.927Z,1019.06
2022-12-17T11:50:06.782Z,1019.07
2022-12-17T11:50:36.745Z,1019.07
2022-12-17T11:51:06.700Z,1019.05
2022-12-17T11:51:36.612Z,1019.01
2022-12-17T11:52:06.562Z,1019.08
2022-12-17T11:52:36.481Z,1019.03
2022-12-17T11:53:06.413Z,1019.01
2022-12-17T11:53:36.374Z,1019.05
2022-12-17T11:54:06.328Z,1019.04
2022-12-17T11:54:36.322Z,1019.01
2022-12-17T11:55:06.278Z,1019.05
2022-12-17T11:55:36.219Z,1019.00
2022-12-17T11:56:06.255Z,1019.02
2022-12-17T11:56:36.188Z,1018.99
2022-12-17T11:57:06.167Z,1019.04
2022-12-17T11:57:36.092Z,1019.01
2022-12-17T11:58:06.064Z,1019.00
2022-12-17T11:58:36.383Z,1019.01
2022-12-17T11:59:06.017Z,1019.06
2022-12-17T11:59:36.004Z,1019.04
2022-12-17T12:00:05.869Z,1018.99
2022-12-17T12:00:35.932Z,1018.99
2022-12-17T12:01:05.762Z,1019.04
2022-12-17T12:01:35.760Z,1018.95
2022-12-17T12:02:05.689Z,1019.00
2022-12-17T12:02:35.703Z,1018.91
2022-12-17T12:03:05.589Z,1018.97
2022-12-17T12:03:35.597Z,1018.97
2022-12-17T12:04:05.424Z,1019.00
2022-12-17T12:04:35.364Z,1018.95
2022-12-17T12:05:05.257Z,1018.92
2022-12-17T12:05:35.142Z,1018.97
2022-12-17T12:06:05.129Z,1018.96
2022-12-17T12:06:34.976Z,1018.99
2022-12-17T12:07:04.910Z,1018.90
2022-12-17T12:07:34.860Z,1018.91
2022-12-17T12:08:04.716Z,1018.94
2022-12-17T12:08:35.066Z,1018.93
2022-12-17T12:09:04.589Z,1018.89
2022-12-17T12:09:34.469Z,1018.98
2022-12-17T12:10:04.375Z,1018.92
2022-12-17T12:10:34.297Z,1018.91
2022-12-17T12:11:04.178Z,1018.89
2022-12-17T12:11:34.160Z,1018.92
2022-12-17T12:12:04.002Z,1018.88
2022-12-17T12:12:33.905Z,1018.92
2022-12-17T12:13:03.884Z,1018.90
2022-12-17T12:13:33.724Z,1018.92
2022-12-17T12:14:03.649Z,1018.96
2022-12-17T12:14:33.533Z,1018.90
2022-12-17T12:15:03.427Z,1018.95
2022-12-17T12:15:33.357Z,1018.92
2022-12-17T12:16:03.310Z,1018.94
2022-12-17T12:16:33.264Z,1018.97
2022-12-17T12:17:03.059Z,1018.95
2022-12-17T12:17:32.978Z,1018.96
2022-12-17T12:18:02.902Z,1018.96
2022-12-17T12:18:32.799Z,1018.98
2022-12-17T12:19:02.725Z,1018.96
2022-12-17T12:19:32.634Z,1019.00
2022-12-17T12:20:02.522Z,1018.97
2022-12-17T12:20:32.442Z,1018.96
2022-12-17T12:21:02.363Z,1018.96
2022-12-17T12:21:32.271Z,1018.99
2022-12-17T12:22:02.182Z,1018.94
2022-12-17T12:22:32.113Z,1018.99
2022-12-17T12:23:02.008Z,1018.97
2022-12-17T12:23:31.931Z,1018.98
2022-12-17T12:24:01.864Z,1018.97
2022-12-17T12:24:31.767Z,1018.97
2022-12-17T12:25:01.678Z,1018.94
2022-12-17T12:25:31.614Z,1018.95
2022-12-17T12:26:01.542Z,1018.93
2022-12-17T12:26:31.716Z,1018.95
2022-12-17T12:27:01.369Z,1018.95
2022-12-17T12:27:31.291Z,1018.94
2022-12-17T12:28:01.187Z,1018.94
2022-12-17T12:28:31.165Z,1018.95
2022-12-17T12:29:01.029Z,1018.96
2022-12-17T12:29:30.963Z,1018.96
2022-12-17T12:30:00.866Z,1018.92
2022-12-17T12:30:30.806Z,1018.98
2022-12-17T12:31:00.718Z,1018.93
2022-12-17T12:31:30.745Z,1018.92
2022-12-17T12:32:00.636Z,1018.93
2022-12-17T12:32:30.454Z,1018.95
2022-12-17T12:33:03.159Z,1019.00
2022-12-17T12:33:31.299Z,1018.97
2022-12-17T12:34:00.180Z,1018.97
2022-12-17T12:34:30.115Z,1018.94
2022-12-17T12:35:00.000Z,1018.92
2022-12-17T12:35:29.919Z,1018.91
2022-12-17T12:35:59.832Z,1018.93
2022-12-17T12:36:29.806Z,1018.92
2022-12-17T12:36:59.681Z,1018.91
2022-12-17T12:37:29.630Z,1018.90
2022-12-17T12:37:59.478Z,1018.91
2022-12-17T12:38:29.443Z,1018.90
2022-12-17T12:38:59.325Z,1018.94
2022-12-17T12:39:29.223Z,1018.94
2022-12-17T12:39:59.181Z,1018.94
2022-12-17T12:40:30.367Z,1018.93
2022-12-17T12:41:09.043Z,1018.97
2022-12-17T12:41:28.844Z,1018.93
2022-12-17T12:44:15.669Z,1018.93
2022-12-17T12:44:49.596Z,1018.97
2022-12-17T12:45:15.350Z,1018.93
2022-12-17T12:45:45.402Z,1018.92
2022-12-17T12:46:15.417Z,1018.89
2022-12-17T12:46:45.295Z,1018.91
2022-12-17T12:47:15.295Z,1018.93
2022-12-17T13:08:01.370Z,1018.77
2022-12-17T13:08:31.237Z,1018.76
2022-12-17T13:09:01.251Z,1018.73
2022-12-17T13:09:34.826Z,1018.66
2022-12-17T13:10:01.259Z,1018.71
2022-12-17T13:10:31.257Z,1018.71
2022-12-17T13:11:01.300Z,1018.67
2022-12-17T13:11:31.258Z,1018.69
2022-12-17T13:12:01.233Z,1018.69
2022-12-17T13:12:31.312Z,1018.73
2022-12-17T13:13:01.269Z,1018.70
2022-12-17T13:13:31.216Z,1018.71
2022-12-17T13:14:01.219Z,1018.70
2022-12-17T13:14:31.250Z,1018.73
2022-12-17T13:15:01.233Z,1018.69
2022-12-17T13:15:33.232Z,1018.69
2022-12-17T13:16:01.248Z,1018.65
2022-12-17T13:16:31.268Z,1018.65
2022-12-17T13:17:01.198Z,1018.62
2022-12-17T13:17:31.208Z,1018.64
2022-12-17T13:18:01.351Z,1018.62
2022-12-17T13:18:31.279Z,1018.65
2022-12-17T13:19:01.191Z,1018.66
2022-12-17T13:19:31.162Z,1018.67
2022-12-17T13:20:01.136Z,1018.64
2022-12-17T13:20:31.106Z,1018.64
2022-12-17T13:21:01.113Z,1018.65
2022-12-17T13:21:31.077Z,1018.61
2022-12-17T13:22:01.359Z,1018.65
2022-12-17T13:22:31.062Z,1018.58
2022-12-17T13:23:01.101Z,1018.58
2022-12-17T13:23:31.280Z,1018.61
2022-12-17T13:24:01.112Z,1018.60
2022-12-17T13:24:30.992Z,1018.59
2022-12-17T13:25:10.666Z,1018.58
2022-12-17T13:25:30.941Z,1018.58
2022-12-17T13:26:00.939Z,1018.59
2022-12-17T13:26:30.904Z,1018.59
2022-12-17T13:27:00.917Z,1018.58
2022-12-17T13:27:30.859Z,1018.58
2022-12-17T13:28:00.847Z,1018.51
2022-12-17T13:28:30.837Z,1018.57
2022-12-17T13:29:00.893Z,1018.57
2022-12-17T13:29:30.891Z,1018.49
2022-12-17T13:30:09.718Z,1018.55
2022-12-17T13:30:30.716Z,1018.49
2022-12-17T13:31:00.705Z,1018.53
2022-12-17T13:31:30.717Z,1018.52
2022-12-17T13:32:00.824Z,1018.51
2022-12-17T13:32:30.641Z,1018.53
2022-12-17T13:33:00.619Z,1018.52
2022-12-17T13:33:30.649Z,1018.50
2022-12-17T13:34:00.584Z,1018.52
2022-12-17T13:34:40.239Z,1018.51
2022-12-17T13:35:02.396Z,1018.50
2022-12-17T13:36:55.282Z,1018.52
2022-12-17T13:37:25.278Z,1018.46
2022-12-17T13:37:55.289Z,1018.50
2022-12-17T13:38:25.300Z,1018.52
2022-12-17T13:38:55.330Z,1018.54
2022-12-17T13:39:25.287Z,1018.51
2022-12-17T13:39:55.309Z,1018.56
2022-12-17T13:40:25.279Z,1018.55
2022-12-17T13:40:55.288Z,1018.54
2022-12-17T13:41:25.302Z,1018.57
2022-12-17T13:41:55.280Z,1018.63
2022-12-17T13:42:25.271Z,1018.60
2022-12-17T13:43:03.055Z,1018.63
2022-12-17T13:43:36.271Z,1018.60
2022-12-17T13:43:55.273Z,1018.56
2022-12-17T13:44:25.255Z,1018.59
2022-12-17T13:44:55.266Z,1018.61
2022-12-17T13:45:36.684Z,1018.57
2022-12-17T13:45:55.322Z,1018.58
2022-12-17T13:46:25.395Z,1018.56
2022-12-17T13:47:06.956Z,1018.57
2022-12-17T13:47:25.278Z,1018.59
2022-12-17T13:47:55.290Z,1018.61
2022-12-17T13:50:03.989Z,1018.59
2022-12-17T13:50:33.826Z,1018.55
2022-12-17T13:50:48.433Z,1018.58
2022-12-17T13:51:17.443Z,1018.59
2022-12-17T13:51:47.448Z,1018.59
2022-12-17T13:52:17.441Z,1018.63
2022-12-17T13:52:47.499Z,1018.62
2022-12-17T13:53:17.468Z,1018.61
2022-12-17T13:53:47.424Z,1018.60
2022-12-17T13:54:17.448Z,1018.60
2022-12-17T13:54:47.448Z,1018.60
2022-12-17T13:55:17.426Z,1018.56
2022-12-17T13:55:47.410Z,1018.59
2022-12-17T13:56:17.417Z,1018.59
2022-12-17T13:56:47.421Z,1018.59
2022-12-17T13:57:17.419Z,1018.58
2022-12-17T13:57:47.412Z,1018.59
2022-12-17T13:58:17.425Z,1018.57
2022-12-17T13:58:51.078Z,1018.59
2022-12-17T13:59:17.422Z,1018.59
2022-12-17T13:59:47.463Z,1018.57
